createdAt,value
2019-02-16T00:02:01.830Z,96350.02
2019-02-16T00:04:27.833Z,96350.94
2019-02-16T00:06:54.430Z,96349.53
2019-02-16T00:09:20.816Z,96358.10
2019-02-16T00:11:47.468Z,96359.50
2019-02-16T00:14:13.475Z,96352.78
2019-02-16T00:16:39.491Z,96351.20
2019-02-16T00:19:05.496Z,96360.41
2019-02-16T00:21:31.494Z,96363.42
2019-02-16T00:23:57.505Z,96355.44
2019-02-16T00:26:23.503Z,96359.76
2019-02-16T00:28:49.509Z,96351.67
2019-02-16T00:31:15.511Z,96352.62
2019-02-16T00:33:41.615Z,96346.45
2019-02-16T00:36:07.548Z,96346.52
2019-02-16T00:38:33.545Z,96348.20
2019-02-16T00:40:59.551Z,96344.70
2019-02-16T00:43:25.558Z,96344.38
2019-02-16T00:45:51.558Z,96343.47
2019-02-16T00:48:17.560Z,96338.06
2019-02-16T00:50:43.593Z,96343.86
2019-02-16T00:53:09.588Z,96339.39
2019-02-16T00:55:35.583Z,96335.50
2019-02-16T00:58:01.584Z,96340.30
2019-02-16T01:00:27.574Z,96340.23
2019-02-16T01:02:53.578Z,96331.34
2019-02-16T01:05:19.580Z,96330.40
2019-02-16T01:07:45.600Z,96329.84
2019-02-16T01:10:11.577Z,96327.42
2019-02-16T01:12:37.574Z,96321.09
2019-02-16T01:15:03.574Z,96319.70
2019-02-16T01:17:29.627Z,96315.39
2019-02-16T01:19:55.623Z,96319.37
2019-02-16T01:22:21.622Z,96321.45
2019-02-16T01:24:47.623Z,96320.19
2019-02-16T01:27:13.621Z,96319.70
2019-02-16T01:29:39.623Z,96318.85
2019-02-16T01:32:05.630Z,96318.85
2019-02-16T01:34:31.631Z,96317.95
2019-02-16T01:36:57.626Z,96321.28
2019-02-16T01:39:23.622Z,96317.03
2019-02-16T01:41:49.622Z,96320.02
2019-02-16T01:44:15.629Z,96310.70
2019-02-16T01:46:41.630Z,96304.97
2019-02-16T01:49:07.638Z,96313.63
2019-02-16T01:51:33.636Z,96304.64
2019-02-16T01:53:59.635Z,96303.99
2019-02-16T01:56:25.647Z,96304.41
2019-02-16T01:58:51.652Z,96304.91
2019-02-16T02:01:17.646Z,96309.31
2019-02-16T02:03:43.650Z,96307.62
2019-02-16T02:06:09.648Z,96308.80
2019-02-16T02:08:35.647Z,96309.73
2019-02-16T02:11:01.646Z,96308.23
2019-02-16T02:13:27.647Z,96304.73
2019-02-16T02:15:53.700Z,96310.05
2019-02-16T02:18:19.702Z,96311.55
2019-02-16T02:20:45.699Z,96311.80
2019-02-16T02:23:11.700Z,96305.64
2019-02-16T02:25:37.692Z,96309.15
2019-02-16T02:28:03.687Z,96308.30
2019-02-16T02:30:29.703Z,96310.47
2019-02-16T02:32:55.688Z,96312.72
2019-02-16T02:35:21.697Z,96312.55
2019-02-16T02:37:47.697Z,96312.55
2019-02-16T02:40:13.699Z,96314.95
2019-02-16T02:42:39.708Z,96314.95
2019-02-16T02:45:05.700Z,96315.12
2019-02-16T02:47:31.695Z,96315.28
2019-02-16T02:49:57.696Z,96317.28
2019-02-16T02:52:23.734Z,96311.80
2019-02-16T02:54:49.749Z,96316.70
2019-02-16T02:57:15.780Z,96313.20
2019-02-16T02:59:41.755Z,96319.69
2019-02-16T03:02:07.754Z,96318.29
2019-02-16T03:04:33.755Z,96316.61
2019-02-16T03:06:59.757Z,96320.85
2019-02-16T03:09:25.764Z,96322.70
2019-02-16T03:11:51.764Z,96324.03
2019-02-16T03:14:17.763Z,96331.00
2019-02-16T03:16:43.811Z,96328.83
2019-02-16T03:19:09.821Z,96328.34
2019-02-16T03:21:35.822Z,96326.11
2019-02-16T03:24:01.824Z,96325.59
2019-02-16T03:26:27.819Z,96328.34
2019-02-16T03:28:53.829Z,96326.00
2019-02-16T03:31:19.837Z,96327.44
2019-02-16T03:33:45.842Z,96327.86
2019-02-16T03:36:11.839Z,96328.59
2019-02-16T03:38:37.838Z,96324.25
2019-02-16T03:41:03.858Z,96325.68
2019-02-16T03:43:29.842Z,96321.76
2019-02-16T03:45:55.844Z,96323.02
2019-02-16T03:48:21.836Z,96323.77
2019-02-16T03:50:48.238Z,96313.13
2019-02-16T03:53:13.852Z,96318.45
2019-02-16T03:55:39.889Z,96318.87
2019-02-16T03:58:05.924Z,96312.70
2019-02-16T04:00:31.931Z,96314.45
2019-02-16T04:02:57.919Z,96317.11
2019-02-16T04:05:23.923Z,96308.30
2019-02-16T04:07:49.920Z,96304.56
2019-02-16T04:10:15.922Z,96302.06
2019-02-16T04:12:41.921Z,96301.58
2019-02-16T04:15:07.927Z,96294.50
2019-02-16T04:17:33.922Z,96301.58
2019-02-16T04:19:59.944Z,96298.33
2019-02-16T04:22:25.951Z,96297.91
2019-02-16T04:24:51.943Z,96294.34
2019-02-16T04:27:17.947Z,96295.60
2019-02-16T04:29:43.950Z,96285.77
2019-02-16T04:32:09.954Z,96288.53
2019-02-16T04:34:35.955Z,96292.36
2019-02-16T04:37:01.965Z,96286.52
2019-02-16T04:39:27.966Z,96288.85
2019-02-16T04:41:53.980Z,96300.75
2019-02-16T04:44:19.971Z,96299.42
2019-02-16T04:46:45.974Z,96304.91
2019-02-16T04:49:11.972Z,96302.09
2019-02-16T04:51:37.972Z,96301.50
2019-02-16T04:54:03.969Z,96310.88
2019-02-16T04:56:29.977Z,96314.05
2019-02-16T04:58:55.973Z,96320.37
2019-02-16T05:01:21.973Z,96320.44
2019-02-16T05:03:47.968Z,96329.85
2019-02-16T05:06:13.977Z,96320.55
2019-02-16T05:08:39.982Z,96330.92
2019-02-16T05:11:05.977Z,96329.92
2019-02-16T05:13:32.004Z,96334.81
2019-02-16T05:15:58.067Z,96340.56
2019-02-16T05:18:24.055Z,96339.33
2019-02-16T05:20:50.052Z,96338.97
2019-02-16T05:23:16.059Z,96343.55
2019-02-16T05:25:42.061Z,96344.48
2019-02-16T05:28:08.156Z,96348.56
2019-02-16T05:30:34.192Z,96350.37
2019-02-16T05:33:00.174Z,96352.55
2019-02-16T05:35:26.164Z,96350.87
2019-02-16T05:37:52.172Z,96357.09
2019-02-16T05:40:18.177Z,96354.27
2019-02-16T05:42:44.174Z,96354.80
2019-02-16T05:45:10.209Z,96355.86
2019-02-16T05:47:36.249Z,96360.38
2019-02-16T05:50:02.352Z,96354.11
2019-02-16T05:52:28.363Z,96354.88
2019-02-16T05:54:54.349Z,96357.19
2019-02-16T05:57:20.350Z,96357.77
2019-02-16T05:59:46.346Z,96358.94
2019-02-16T06:02:12.348Z,96361.53
2019-02-16T06:04:38.347Z,96362.51
2019-02-16T06:07:04.369Z,96364.91
2019-02-16T06:09:30.366Z,96356.61
2019-02-16T06:11:56.374Z,96358.04
2019-02-16T06:14:22.388Z,96352.47
2019-02-16T06:16:48.387Z,96347.21
2019-02-16T06:19:14.394Z,96346.89
2019-02-16T06:21:40.417Z,96345.56
2019-02-16T06:24:06.414Z,96353.96
2019-02-16T06:26:32.428Z,96352.69
2019-02-16T06:28:58.432Z,96344.30
2019-02-16T06:31:24.429Z,96347.47
2019-02-16T06:33:50.459Z,96358.50
2019-02-16T06:36:16.464Z,96366.73
2019-02-16T06:38:42.483Z,96373.06
2019-02-16T06:41:08.494Z,96371.64
2019-02-16T06:43:34.505Z,96375.98
2019-02-16T06:46:00.920Z,96379.55
2019-02-16T06:48:26.504Z,96378.73
2019-02-16T06:50:52.497Z,96385.39
2019-02-16T06:53:18.757Z,96381.66
2019-02-16T06:55:44.775Z,96385.81
2019-02-16T06:58:10.790Z,96389.53
2019-02-16T07:00:36.987Z,96394.53
2019-02-16T07:03:03.014Z,96399.43
2019-02-16T07:05:29.035Z,96392.30
2019-02-16T07:07:55.033Z,96394.02
2019-02-16T07:10:21.040Z,96391.28
2019-02-16T07:12:47.053Z,96392.69
2019-02-16T07:15:13.051Z,96391.03
2019-02-16T07:17:39.056Z,96394.11
2019-02-16T07:20:05.069Z,96397.36
2019-02-16T07:22:31.079Z,96402.58
2019-02-16T07:24:57.213Z,96400.92
2019-02-16T07:27:23.230Z,96402.32
2019-02-16T07:29:49.205Z,96403.27
2019-02-16T07:32:15.253Z,96403.81
2019-02-16T07:34:41.251Z,96410.72
2019-02-16T07:37:07.256Z,96415.72
2019-02-16T07:39:33.258Z,96412.58
2019-02-16T07:41:59.287Z,96413.48
2019-02-16T07:44:25.344Z,96421.89
2019-02-16T07:46:51.295Z,96424.55
2019-02-16T07:49:17.445Z,96415.72
2019-02-16T07:51:43.444Z,96411.31
2019-02-16T07:54:09.446Z,96408.33
2019-02-16T07:56:35.453Z,96402.91
2019-02-16T07:59:01.464Z,96404.34
2019-02-16T08:01:27.476Z,96396.68
2019-02-16T08:03:53.509Z,96394.34
2019-02-16T08:06:19.520Z,96390.45
2019-02-16T08:08:45.517Z,96392.95
2019-02-16T08:11:11.527Z,96387.20
2019-02-16T08:13:37.524Z,96387.46
2019-02-16T08:16:03.529Z,96384.70
2019-02-16T08:18:29.553Z,96363.69
2019-02-16T08:20:55.569Z,96374.16
2019-02-16T08:23:21.562Z,96366.34
2019-02-16T08:25:47.726Z,96365.75
2019-02-16T08:28:13.731Z,96374.48
2019-02-16T08:30:40.035Z,96374.58
2019-02-16T08:33:06.088Z,96368.42
2019-02-16T08:35:32.087Z,96371.50
2019-02-16T08:37:58.095Z,96369.68
2019-02-16T08:40:24.104Z,96371.40
2019-02-16T08:42:50.132Z,96373.15
2019-02-16T08:45:16.138Z,96376.33
2019-02-16T08:47:42.144Z,96374.84
2019-02-16T08:50:08.145Z,96375.41
2019-02-16T08:52:34.184Z,96381.16
2019-02-16T08:55:00.328Z,96381.22
2019-02-16T08:57:26.200Z,96374.83
2019-02-16T08:59:52.195Z,96370.67
2019-02-16T09:02:18.451Z,96371.90
2019-02-16T09:04:44.457Z,96365.08
2019-02-16T09:07:10.552Z,96370.99
2019-02-16T09:09:36.555Z,96357.79
2019-02-16T09:12:02.555Z,96355.19
2019-02-16T09:14:28.563Z,96357.86
2019-02-16T09:16:54.559Z,96355.19
2019-02-16T09:19:20.559Z,96352.63
2019-02-16T09:21:46.573Z,96354.70
2019-02-16T09:24:12.568Z,96356.45
2019-02-16T09:26:38.677Z,96355.03
2019-02-16T09:29:04.679Z,96351.78
2019-02-16T09:31:30.862Z,96348.39
2019-02-16T09:33:56.871Z,96355.27
2019-02-16T09:36:22.925Z,96348.62
2019-02-16T09:38:48.927Z,96349.48
2019-02-16T09:41:14.933Z,96347.20
2019-02-16T09:43:40.937Z,96349.89
2019-02-16T09:46:06.935Z,96345.16
2019-02-16T09:48:32.956Z,96344.82
2019-02-16T09:50:58.978Z,96343.81
2019-02-16T09:53:25.115Z,96345.98
2019-02-16T09:55:51.280Z,96346.89
2019-02-16T09:58:17.655Z,96342.55
2019-02-16T10:00:43.648Z,96337.98
2019-02-16T10:03:09.762Z,96334.50
2019-02-16T10:05:35.668Z,96335.22
2019-02-16T10:08:01.671Z,96333.50
2019-02-16T10:10:27.671Z,96323.85
2019-02-16T10:12:53.677Z,96319.19
2019-02-16T10:15:19.688Z,96323.59
2019-02-16T10:17:45.695Z,96309.94
2019-02-16T10:20:11.700Z,96313.28
2019-02-16T10:22:37.704Z,96315.17
2019-02-16T10:25:03.719Z,96317.94
2019-02-16T10:27:29.720Z,96315.00
2019-02-16T10:29:55.723Z,96308.45
2019-02-16T10:32:22.020Z,96305.63
2019-02-16T10:34:48.027Z,96307.38
2019-02-16T10:37:14.039Z,96302.47
2019-02-16T10:39:40.092Z,96307.69
2019-02-16T10:42:06.090Z,96302.69
2019-02-16T10:44:32.145Z,96300.02
2019-02-16T10:46:58.109Z,96300.80
2019-02-16T10:49:24.122Z,96295.86
2019-02-16T10:51:50.123Z,96296.11
2019-02-16T10:54:16.278Z,96286.73
2019-02-16T10:56:42.323Z,96281.82
2019-02-16T10:59:08.332Z,96272.83
2019-02-16T11:01:34.569Z,96263.41
2019-02-16T11:04:00.582Z,96265.09
2019-02-16T11:06:26.616Z,96250.10
2019-02-16T11:08:52.817Z,96252.02
2019-02-16T11:11:18.842Z,96256.09
2019-02-16T11:13:44.879Z,96244.53
2019-02-16T11:16:10.888Z,96248.52
2019-02-16T11:18:37.252Z,96253.58
2019-02-16T11:21:03.437Z,96243.52
2019-02-16T11:23:29.453Z,96239.45
2019-02-16T11:25:55.452Z,96239.94
2019-02-16T11:28:21.464Z,96236.69
2019-02-16T11:30:47.521Z,96237.59
2019-02-16T11:33:13.617Z,96236.20
2019-02-16T11:35:40.438Z,96231.78
2019-02-16T11:38:05.859Z,96237.36
2019-02-16T11:40:31.893Z,96230.70
2019-02-16T11:42:57.905Z,96225.97
2019-02-16T11:45:23.938Z,96223.55
2019-02-16T11:47:49.956Z,96230.46
2019-02-16T11:50:16.000Z,96232.17
2019-02-16T11:52:42.000Z,96217.53
2019-02-16T11:55:07.998Z,96212.91
2019-02-16T11:57:34.018Z,96210.25
2019-02-16T12:00:00.039Z,96208.84
2019-02-16T12:02:26.280Z,96210.39
2019-02-16T12:04:52.300Z,96210.56
2019-02-16T12:07:18.310Z,96203.63
2019-02-16T12:09:44.320Z,96198.56
2019-02-16T12:12:10.316Z,96200.70
2019-02-16T12:14:36.327Z,96197.02
2019-02-16T12:17:02.501Z,96199.41
2019-02-16T12:19:28.522Z,96192.08
2019-02-16T12:21:54.531Z,96195.17
2019-02-16T12:24:20.529Z,96190.41
2019-02-16T12:26:46.526Z,96198.88
2019-02-16T12:29:12.542Z,96198.14
2019-02-16T12:31:38.544Z,96193.31
2019-02-16T12:34:04.549Z,96194.22
2019-02-16T12:36:30.559Z,96185.81
2019-02-16T12:39:04.616Z,96179.50
2019-02-16T12:41:22.561Z,96180.48
2019-02-16T12:43:48.569Z,96178.16
2019-02-16T12:46:14.566Z,96174.38
2019-02-16T12:48:40.566Z,96169.41
2019-02-16T12:51:06.582Z,96169.47
2019-02-16T12:53:32.622Z,96171.16
2019-02-16T12:55:58.616Z,96177.22
2019-02-16T12:58:24.621Z,96162.81
2019-02-16T13:06:09.440Z,96155.17
2019-02-16T13:08:35.446Z,96160.39
2019-02-16T13:11:03.995Z,96158.57
2019-02-16T13:13:34.096Z,96155.98
2019-02-16T13:16:03.604Z,96156.81
2019-02-16T13:18:32.707Z,96156.81
2019-02-16T13:21:03.419Z,96154.89
2019-02-16T13:23:31.105Z,96152.41
2019-02-16T13:26:05.108Z,96154.47
2019-02-16T13:28:32.158Z,96153.66
2019-02-16T13:30:58.401Z,96145.08
2019-02-16T13:33:24.405Z,96152.97
2019-02-16T13:35:50.776Z,96147.81
2019-02-16T13:38:16.882Z,96145.45
2019-02-16T13:40:42.986Z,96145.45
2019-02-16T13:43:09.033Z,96140.45
2019-02-16T13:45:35.167Z,96141.95
2019-02-16T13:48:01.280Z,96146.13
2019-02-16T13:50:27.325Z,96143.21
2019-02-16T13:52:53.323Z,96137.05
2019-02-16T13:55:19.386Z,96136.97
2019-02-16T13:57:45.583Z,96131.89
2019-02-16T14:00:11.795Z,96128.98
2019-02-16T14:02:37.803Z,96126.95
2019-02-16T14:05:04.054Z,96126.63
2019-02-16T14:07:31.183Z,96116.64
2019-02-16T14:09:57.230Z,96120.70
2019-02-16T14:12:23.244Z,96123.44
2019-02-16T14:14:49.246Z,96129.95
2019-02-16T14:17:16.404Z,96132.34
2019-02-16T14:19:42.475Z,96127.11
2019-02-16T14:22:08.486Z,96128.34
2019-02-16T14:24:34.635Z,96130.94
2019-02-16T14:27:00.977Z,96129.44
2019-02-16T14:29:27.201Z,96131.25
2019-02-16T14:31:53.206Z,96123.19
2019-02-16T14:34:19.818Z,96126.02
2019-02-16T14:36:48.676Z,96127.19
2019-02-16T14:39:17.309Z,96120.70
2019-02-16T14:41:43.735Z,96119.61
2019-02-16T14:44:09.770Z,96117.05
2019-02-16T14:46:35.812Z,96111.94
2019-02-16T14:49:01.832Z,96111.91
2019-02-16T14:51:27.836Z,96107.13
2019-02-16T14:53:54.064Z,96114.46
2019-02-16T14:56:20.048Z,96112.81
2019-02-16T14:58:46.042Z,96109.73
2019-02-16T15:01:12.766Z,96103.86
2019-02-16T15:03:38.771Z,96109.18
2019-02-16T15:06:05.408Z,96112.44
2019-02-16T15:08:31.458Z,96108.13
2019-02-16T15:10:58.104Z,96109.47
2019-02-16T15:13:24.637Z,96106.45
2019-02-16T15:15:55.985Z,96105.23
2019-02-16T15:18:22.912Z,96104.80
2019-02-16T15:20:49.003Z,96111.22
2019-02-16T15:23:14.970Z,96110.91
2019-02-16T15:25:40.991Z,96107.09
2019-02-16T15:28:06.995Z,96114.94
2019-02-16T15:30:33.015Z,96109.61
2019-02-16T15:32:59.093Z,96111.19
2019-02-16T15:35:25.128Z,96108.95
2019-02-16T15:37:51.127Z,96115.37
2019-02-16T15:40:17.130Z,96119.85
2019-02-16T15:42:43.173Z,96114.70
2019-02-16T15:45:09.175Z,96118.38
2019-02-16T15:47:35.174Z,96119.89
2019-02-16T15:50:01.176Z,96122.63
2019-02-16T15:52:27.187Z,96119.92
2019-02-16T15:54:53.191Z,96124.73
2019-02-16T15:57:19.188Z,96119.92
2019-02-16T15:59:45.240Z,96125.74
2019-02-16T16:02:11.243Z,96124.59
2019-02-16T16:04:37.258Z,96124.16
2019-02-16T16:07:03.253Z,96134.08
2019-02-16T16:09:29.282Z,96133.66
2019-02-16T16:11:55.296Z,96136.81
2019-02-16T16:14:21.307Z,96141.41
2019-02-16T16:16:47.314Z,96142.84
2019-02-16T16:19:13.317Z,96149.56
2019-02-16T16:21:39.428Z,96147.50
2019-02-16T16:24:05.428Z,96150.48
2019-02-16T16:26:32.903Z,96150.48
2019-02-16T16:29:00.672Z,96157.23
2019-02-16T16:31:23.441Z,96155.31
2019-02-16T16:33:49.498Z,96161.90
2019-02-16T16:36:15.501Z,96168.20
2019-02-16T16:38:41.494Z,96169.12
2019-02-16T16:41:07.511Z,96175.11
2019-02-16T16:43:33.515Z,96175.43
2019-02-16T16:45:59.508Z,96174.62
2019-02-16T16:48:25.514Z,96177.59
2019-02-16T16:50:51.524Z,96182.67
2019-02-16T16:53:17.526Z,96184.36
2019-02-16T16:55:43.533Z,96196.41
2019-02-16T16:58:09.541Z,96186.50
2019-02-16T17:00:35.545Z,96185.44
2019-02-16T17:03:01.558Z,96189.69
2019-02-16T17:05:27.559Z,96188.70
2019-02-16T17:07:53.561Z,96190.52
2019-02-16T17:10:19.617Z,96193.50
2019-02-16T17:12:45.629Z,96196.94
2019-02-16T17:15:11.638Z,96203.17
2019-02-16T17:17:40.741Z,96200.93
2019-02-16T17:20:08.722Z,96201.34
2019-02-16T17:22:32.770Z,96203.09
2019-02-16T17:24:58.768Z,96207.73
2019-02-16T17:27:24.771Z,96206.33
2019-02-16T17:29:50.797Z,96207.91
2019-02-16T17:32:16.795Z,96204.89
2019-02-16T17:34:42.808Z,96207.48
2019-02-16T17:37:08.801Z,96207.55
2019-02-16T17:39:34.804Z,96210.22
2019-02-16T17:42:00.802Z,96208.89
2019-02-16T17:44:26.814Z,96209.73
2019-02-16T17:46:52.860Z,96209.88
2019-02-16T17:49:18.833Z,96206.89
2019-02-16T17:51:44.840Z,96211.38
2019-02-16T17:54:10.852Z,96216.48
2019-02-16T17:56:36.862Z,96209.83
2019-02-16T17:59:02.994Z,96211.06
2019-02-16T18:01:28.992Z,96216.39
2019-02-16T18:03:55.014Z,96215.16
2019-02-16T18:06:21.008Z,96215.72
2019-02-16T18:08:47.017Z,96217.64
2019-02-16T18:11:13.262Z,96217.05
2019-02-16T18:13:39.391Z,96224.65
2019-02-16T18:16:05.395Z,96225.98
2019-02-16T18:18:31.476Z,96232.64
2019-02-16T18:20:57.472Z,96226.62
2019-02-16T18:23:23.503Z,96224.86
2019-02-16T18:25:49.504Z,96232.22
2019-02-16T18:28:15.510Z,96226.96
2019-02-16T18:30:41.557Z,96229.88
2019-02-16T18:33:07.565Z,96226.55
2019-02-16T18:35:33.577Z,96229.03
2019-02-16T18:37:59.585Z,96228.64
2019-02-16T18:40:25.681Z,96233.97
2019-02-16T18:42:51.573Z,96237.02
2019-02-16T18:45:17.616Z,96231.48
2019-02-16T18:47:43.612Z,96228.72
2019-02-16T18:50:09.611Z,96228.22
2019-02-16T18:52:35.617Z,96235.69
2019-02-16T18:55:10.696Z,96226.54
2019-02-16T18:57:27.631Z,96233.13
2019-02-16T18:59:54.049Z,96235.52
2019-02-16T19:02:27.640Z,96234.53
2019-02-16T19:04:59.323Z,96228.05
2019-02-16T19:07:26.245Z,96228.05
2019-02-16T19:09:52.444Z,96229.20
2019-02-16T19:12:18.648Z,96238.70
2019-02-16T19:14:44.944Z,96232.88
2019-02-16T19:17:12.182Z,96232.60
2019-02-16T19:19:36.994Z,96230.84
2019-02-16T19:22:02.991Z,96230.95
2019-02-16T19:24:28.995Z,96237.61
2019-02-16T19:26:54.996Z,96239.92
2019-02-16T19:29:21.013Z,96242.19
2019-02-16T19:31:46.998Z,96245.77
2019-02-16T19:34:13.136Z,96248.60
2019-02-16T19:36:39.132Z,96246.00
2019-02-16T19:39:05.137Z,96248.25
2019-02-16T19:41:31.301Z,96248.60
2019-02-16T19:43:57.515Z,96255.50
2019-02-16T19:46:23.648Z,96256.00
2019-02-16T19:48:50.348Z,96252.91
2019-02-16T19:51:16.555Z,96259.50
2019-02-16T19:53:42.624Z,96255.58
2019-02-16T19:56:08.825Z,96261.99
2019-02-16T19:58:35.130Z,96255.41
2019-02-16T20:01:01.185Z,96255.75
2019-02-16T20:03:27.184Z,96249.23
2019-02-16T20:05:53.190Z,96249.09
2019-02-16T20:08:19.206Z,96250.19
2019-02-16T20:10:45.219Z,96247.24
2019-02-16T20:13:11.220Z,96254.33
2019-02-16T20:15:37.227Z,96251.63
2019-02-16T20:18:03.229Z,96257.89
2019-02-16T20:20:29.238Z,96256.50
2019-02-16T20:22:55.237Z,96255.83
2019-02-16T20:25:21.252Z,96256.84
2019-02-16T20:27:47.256Z,96255.83
2019-02-16T20:30:13.297Z,96259.51
2019-02-16T20:32:39.300Z,96256.77
2019-02-16T20:35:05.304Z,96254.11
2019-02-16T20:37:31.296Z,96256.67
2019-02-16T20:39:57.294Z,96264.77
2019-02-16T20:42:23.300Z,96261.58
2019-02-16T20:44:49.349Z,96262.84
2019-02-16T20:47:15.388Z,96257.16
2019-02-16T20:49:41.353Z,96258.84
2019-02-16T20:52:07.357Z,96264.48
2019-02-16T20:54:33.347Z,96259.58
2019-02-16T20:56:59.348Z,96261.97
2019-02-16T20:59:25.344Z,96258.99
2019-02-16T21:01:51.347Z,96264.81
2019-02-16T21:04:17.348Z,96265.75
2019-02-16T21:06:43.352Z,96258.92
2019-02-16T21:09:09.389Z,96257.06
2019-02-16T21:11:35.391Z,96251.84
2019-02-16T21:14:01.394Z,96256.26
2019-02-16T21:16:27.391Z,96255.73
2019-02-16T21:18:53.383Z,96252.34
2019-02-16T21:21:19.387Z,96257.66
2019-02-16T21:23:45.387Z,96257.24
2019-02-16T21:26:11.416Z,96255.00
2019-02-16T21:28:37.414Z,96255.84
2019-02-16T21:31:03.457Z,96251.91
2019-02-16T21:33:29.413Z,96249.60
2019-02-16T21:35:55.438Z,96249.67
2019-02-16T21:38:21.430Z,96256.26
2019-02-16T21:40:47.432Z,96254.92
2019-02-16T21:43:13.439Z,96257.98
2019-02-16T21:45:39.448Z,96254.16
2019-02-16T21:48:05.451Z,96250.77
2019-02-16T21:50:31.452Z,96256.16
2019-02-16T21:52:57.471Z,96254.41
2019-02-16T21:55:23.472Z,96255.73
2019-02-16T21:57:49.524Z,96256.26
2019-02-16T22:00:15.535Z,96257.98
2019-02-16T22:02:41.535Z,96258.75
2019-02-16T22:05:07.542Z,96249.50
2019-02-16T22:07:33.540Z,96249.50
2019-02-16T22:10:00.363Z,96253.00
2019-02-16T22:12:26.357Z,96244.59
2019-02-16T22:14:52.386Z,96241.77
2019-02-16T22:17:18.388Z,96239.69
2019-02-16T22:19:44.385Z,96249.01
2019-02-16T22:22:10.394Z,96247.26
2019-02-16T22:24:36.392Z,96241.52
2019-02-16T22:27:02.404Z,96237.09
2019-02-16T22:29:28.416Z,96239.69
2019-02-16T22:31:54.415Z,96241.02
2019-02-16T22:34:20.423Z,96237.94
2019-02-16T22:36:46.428Z,96242.00
2019-02-16T22:39:12.424Z,96233.69
2019-02-16T22:41:38.430Z,96234.61
2019-02-16T22:44:04.435Z,96231.13
2019-02-16T22:46:30.440Z,96226.62
2019-02-16T22:48:56.436Z,96239.02
2019-02-16T22:51:22.446Z,96237.69
2019-02-16T22:53:48.445Z,96240.10
2019-02-16T22:56:14.445Z,96237.13
2019-02-16T22:58:40.455Z,96239.85
2019-02-16T23:01:06.446Z,96235.96
2019-02-16T23:03:32.455Z,96237.37
2019-02-16T23:05:58.450Z,96233.72
2019-02-16T23:08:24.453Z,96233.79
2019-02-16T23:10:50.453Z,96238.34
2019-02-16T23:13:16.459Z,96233.93
2019-02-16T23:15:42.454Z,96230.60
2019-02-16T23:18:08.467Z,96232.70
2019-02-16T23:20:34.463Z,96233.68
2019-02-16T23:23:00.471Z,96230.60
2019-02-16T23:25:26.465Z,96229.27
2019-02-16T23:27:52.465Z,96222.72
2019-02-16T23:30:18.459Z,96224.47
2019-02-16T23:32:44.465Z,96222.78
2019-02-16T23:35:10.461Z,96221.88
2019-02-16T23:37:36.478Z,96225.87
2019-02-16T23:40:02.482Z,96217.07
2019-02-16T23:42:28.485Z,96213.47
2019-02-16T23:44:54.491Z,96226.78
2019-02-16T23:47:20.501Z,96220.72
2019-02-16T23:49:46.491Z,96224.28
2019-02-16T23:52:12.494Z,96224.28
2019-02-16T23:54:38.494Z,96224.28
2019-02-16T23:57:04.496Z,96227.47
2019-02-16T23:59:30.491Z,96227.47
